KCNY

Canyonlands Field Airport

Moab, Utah, USA
METAR KCNY 240153Z AUTO 26008KT 10SM CLR 26/M06 A2993 RMK AO2 SLP084 T02561061
Observed Flight Rules
May-24 @ 01:53 UTC (25 minutes ago) Visual Flight Rules
Wind Visibility Clouds
260° at 8 knots 10 miles
  • Clear skies
Temperatures Readings
Current 26°C / 79°F
Dewpoint -6°C / 21°F
Humidity 12%
Altimeter 29.93" Hg
Pressure 1008.4 hPa
Elevation 1390
METAR KCNY 240153Z AUTO 26008KT 10SM CLR 26/M06 A2993 RMK AO2 SLP084 T02561061
Observed Flight Rules
May-24 @ 01:53 UTC
(25 minutes ago)
VFR
Wind Visibility
260° at 8 knots 10 miles
Clouds
  • Clear skies
Temperature Dewpoint
26°C / 79°F -6°C / 21°F
Humidity Altimeter Pressure
12% 29.93" Hg 1008.4 hPa